Terminal Aerodrome Forecast
Issued by NWS Sioux Falls, SD

Current Version | Previous Version | Text Only | Print | Product List | Glossary On
Versions: 1 2 3 4 5 6 7 8 9 10 11 12 13 14 15 16 17 18 19 20
000
FTUS43 KFSD 010534
TAFFSD
TAF
KFSD 010534Z 0106/0206 03019G27KT 1SM -SN BR OVC010
      TEMPO 0106/0110 3/4SM -SN
     FM011400 01019G27KT 2SM -SN OVC012
     FM011900 36018G26KT 4SM -SN OVC025
     FM012100 35015G22KT P6SM SCT025 BKN050
     FM012300 34011KT P6SM SCT050
     FM020300 VRB04KT P6SM SKC=

USA.gov is the U.S. government's official web portal to all federal, state and local government web resources and services.